sensor_id;sensor_type;location;lat;lon;timestamp;P1;durP1;ratioP1;P2;durP2;ratioP2
51862;SDS011;37900;52.996;6.278;2022-12-18T00:01:52;10.30;;;6.32;;
51862;SDS011;37900;52.996;6.278;2022-12-18T00:04:21;7.63;;;5.78;;
51862;SDS011;37900;52.996;6.278;2022-12-18T00:06:48;8.68;;;5.82;;
51862;SDS011;37900;52.996;6.278;2022-12-18T00:09:15;11.30;;;6.50;;
51862;SDS011;37900;52.996;6.278;2022-12-18T00:11:41;8.55;;;6.40;;
51862;SDS011;37900;52.996;6.278;2022-12-18T00:14:07;11.73;;;6.63;;
51862;SDS011;37900;52.996;6.278;2022-12-18T00:16:34;11.13;;;6.97;;
51862;SDS011;37900;52.996;6.278;2022-12-18T00:19:02;9.15;;;6.20;;
51862;SDS011;37900;52.996;6.278;2022-12-18T00:21:29;9.50;;;6.65;;
51862;SDS011;37900;52.996;6.278;2022-12-18T00:26:23;9.55;;;6.63;;
51862;SDS011;37900;52.996;6.278;2022-12-18T00:28:53;7.90;;;5.78;;
51862;SDS011;37900;52.996;6.278;2022-12-18T00:31:22;9.65;;;6.40;;
51862;SDS011;37900;52.996;6.278;2022-12-18T00:33:49;8.13;;;5.80;;
51862;SDS011;37900;52.996;6.278;2022-12-18T00:36:16;8.95;;;5.43;;
51862;SDS011;37900;52.996;6.278;2022-12-18T00:38:44;10.85;;;6.43;;
51862;SDS011;37900;52.996;6.278;2022-12-18T00:41:11;11.18;;;6.80;;
51862;SDS011;37900;52.996;6.278;2022-12-18T00:43:38;8.60;;;5.90;;
51862;SDS011;37900;52.996;6.278;2022-12-18T00:46:04;12.63;;;6.63;;
51862;SDS011;37900;52.996;6.278;2022-12-18T00:48:31;9.33;;;6.77;;
51862;SDS011;37900;52.996;6.278;2022-12-18T00:50:57;11.45;;;6.50;;
51862;SDS011;37900;52.996;6.278;2022-12-18T00:53:23;11.95;;;6.50;;
51862;SDS011;37900;52.996;6.278;2022-12-18T00:55:48;9.05;;;6.30;;
51862;SDS011;37900;52.996;6.278;2022-12-18T00:58:15;9.25;;;6.45;;
51862;SDS011;37900;52.996;6.278;2022-12-18T01:00:41;10.70;;;6.05;;
51862;SDS011;37900;52.996;6.278;2022-12-18T01:03:09;9.48;;;6.10;;
51862;SDS011;37900;52.996;6.278;2022-12-18T01:05:40;8.18;;;6.18;;
51862;SDS011;37900;52.996;6.278;2022-12-18T01:08:06;9.32;;;6.65;;
51862;SDS011;37900;52.996;6.278;2022-12-18T01:10:32;10.73;;;6.25;;
51862;SDS011;37900;52.996;6.278;2022-12-18T01:12:58;9.38;;;6.05;;
51862;SDS011;37900;52.996;6.278;2022-12-18T01:15:24;9.25;;;6.30;;
51862;SDS011;37900;52.996;6.278;2022-12-18T01:17:51;11.10;;;6.88;;
51862;SDS011;37900;52.996;6.278;2022-12-18T01:20:18;11.20;;;7.57;;
51862;SDS011;37900;52.996;6.278;2022-12-18T01:22:44;11.80;;;6.30;;
51862;SDS011;37900;52.996;6.278;2022-12-18T01:25:09;9.30;;;6.47;;
51862;SDS011;37900;52.996;6.278;2022-12-18T01:27:35;9.88;;;6.03;;
51862;SDS011;37900;52.996;6.278;2022-12-18T01:30:01;9.55;;;6.53;;
51862;SDS011;37900;52.996;6.278;2022-12-18T01:32:29;11.15;;;7.65;;
51862;SDS011;37900;52.996;6.278;2022-12-18T01:34:56;10.00;;;6.38;;
51862;SDS011;37900;52.996;6.278;2022-12-18T01:37:21;9.98;;;6.95;;
51862;SDS011;37900;52.996;6.278;2022-12-18T01:39:47;10.40;;;6.88;;
51862;SDS011;37900;52.996;6.278;2022-12-18T01:42:15;8.13;;;5.65;;
51862;SDS011;37900;52.996;6.278;2022-12-18T01:50:05;11.02;;;6.13;;
51862;SDS011;37900;52.996;6.278;2022-12-18T01:52:37;9.10;;;5.85;;
51862;SDS011;37900;52.996;6.278;2022-12-18T01:55:05;7.68;;;6.00;;
51862;SDS011;37900;52.996;6.278;2022-12-18T01:57:32;11.73;;;7.40;;
51862;SDS011;37900;52.996;6.278;2022-12-18T02:00:00;8.50;;;6.20;;
51862;SDS011;37900;52.996;6.278;2022-12-18T02:02:28;9.23;;;6.53;;
51862;SDS011;37900;52.996;6.278;2022-12-18T02:04:54;7.28;;;6.05;;
51862;SDS011;37900;52.996;6.278;2022-12-18T02:09:50;11.15;;;6.80;;
51862;SDS011;37900;52.996;6.278;2022-12-18T02:12:23;8.80;;;6.50;;
51862;SDS011;37900;52.996;6.278;2022-12-18T02:15:00;9.93;;;5.80;;
51862;SDS011;37900;52.996;6.278;2022-12-18T02:17:44;9.95;;;6.32;;
51862;SDS011;37900;52.996;6.278;2022-12-18T02:20:26;10.25;;;6.40;;
51862;SDS011;37900;52.996;6.278;2022-12-18T02:28:29;11.18;;;5.57;;
51862;SDS011;37900;52.996;6.278;2022-12-18T02:30:59;9.18;;;5.40;;
51862;SDS011;37900;52.996;6.278;2022-12-18T02:33:28;10.02;;;6.35;;
51862;SDS011;37900;52.996;6.278;2022-12-18T02:35:55;10.40;;;6.32;;
51862;SDS011;37900;52.996;6.278;2022-12-18T02:38:23;8.10;;;5.75;;
51862;SDS011;37900;52.996;6.278;2022-12-18T02:40:50;10.05;;;6.30;;
51862;SDS011;37900;52.996;6.278;2022-12-18T02:43:18;9.57;;;6.00;;
51862;SDS011;37900;52.996;6.278;2022-12-18T02:45:47;9.75;;;6.10;;
51862;SDS011;37900;52.996;6.278;2022-12-18T02:48:23;8.20;;;5.95;;
51862;SDS011;37900;52.996;6.278;2022-12-18T02:50:57;7.93;;;6.18;;
51862;SDS011;37900;52.996;6.278;2022-12-18T02:53:45;7.45;;;6.07;;
51862;SDS011;37900;52.996;6.278;2022-12-18T02:56:23;9.35;;;6.80;;
51862;SDS011;37900;52.996;6.278;2022-12-18T02:58:57;8.07;;;5.75;;
51862;SDS011;37900;52.996;6.278;2022-12-18T03:04:37;11.07;;;6.65;;
51862;SDS011;37900;52.996;6.278;2022-12-18T03:07:15;9.93;;;6.68;;
51862;SDS011;37900;52.996;6.278;2022-12-18T03:09:46;8.20;;;5.78;;
51862;SDS011;37900;52.996;6.278;2022-12-18T03:12:23;9.25;;;6.47;;
51862;SDS011;37900;52.996;6.278;2022-12-18T03:17:32;10.50;;;6.47;;
51862;SDS011;37900;52.996;6.278;2022-12-18T03:20:02;9.53;;;6.57;;
51862;SDS011;37900;52.996;6.278;2022-12-18T03:22:35;7.85;;;6.20;;
51862;SDS011;37900;52.996;6.278;2022-12-18T03:25:04;8.02;;;6.25;;
51862;SDS011;37900;52.996;6.278;2022-12-18T03:27:32;9.07;;;6.88;;
51862;SDS011;37900;52.996;6.278;2022-12-18T03:30:05;10.38;;;6.55;;
51862;SDS011;37900;52.996;6.278;2022-12-18T03:32:43;8.52;;;6.57;;
51862;SDS011;37900;52.996;6.278;2022-12-18T03:35:14;9.02;;;6.10;;
51862;SDS011;37900;52.996;6.278;2022-12-18T03:37:44;9.80;;;6.72;;
51862;SDS011;37900;52.996;6.278;2022-12-18T03:40:10;8.35;;;6.25;;
51862;SDS011;37900;52.996;6.278;2022-12-18T03:42:52;9.55;;;6.47;;
51862;SDS011;37900;52.996;6.278;2022-12-18T03:45:34;8.00;;;6.32;;
51862;SDS011;37900;52.996;6.278;2022-12-18T03:48:04;9.03;;;7.37;;
51862;SDS011;37900;52.996;6.278;2022-12-18T03:50:41;9.02;;;6.72;;
51862;SDS011;37900;52.996;6.278;2022-12-18T03:53:17;10.45;;;6.65;;
51862;SDS011;37900;52.996;6.278;2022-12-18T03:55:47;10.38;;;6.82;;
51862;SDS011;37900;52.996;6.278;2022-12-18T03:58:15;8.52;;;6.53;;
51862;SDS011;37900;52.996;6.278;2022-12-18T04:00:44;10.55;;;6.82;;
51862;SDS011;37900;52.996;6.278;2022-12-18T04:03:12;8.60;;;6.13;;
51862;SDS011;37900;52.996;6.278;2022-12-18T04:05:40;10.90;;;6.78;;
51862;SDS011;37900;52.996;6.278;2022-12-18T04:08:07;10.48;;;7.22;;
51862;SDS011;37900;52.996;6.278;2022-12-18T04:10:33;8.88;;;6.85;;
51862;SDS011;37900;52.996;6.278;2022-12-18T04:15:26;9.23;;;6.43;;
51862;SDS011;37900;52.996;6.278;2022-12-18T04:17:52;9.70;;;6.85;;
51862;SDS011;37900;52.996;6.278;2022-12-18T04:20:18;10.65;;;7.07;;
51862;SDS011;37900;52.996;6.278;2022-12-18T04:22:44;9.50;;;6.40;;
51862;SDS011;37900;52.996;6.278;2022-12-18T04:25:11;9.07;;;6.63;;
51862;SDS011;37900;52.996;6.278;2022-12-18T04:27:38;10.63;;;6.88;;
51862;SDS011;37900;52.996;6.278;2022-12-18T04:30:04;10.70;;;6.80;;
51862;SDS011;37900;52.996;6.278;2022-12-18T04:32:30;9.77;;;7.57;;
51862;SDS011;37900;52.996;6.278;2022-12-18T04:34:55;8.95;;;6.57;;
51862;SDS011;37900;52.996;6.278;2022-12-18T04:37:21;8.65;;;6.55;;
51862;SDS011;37900;52.996;6.278;2022-12-18T04:39:47;11.15;;;7.40;;
51862;SDS011;37900;52.996;6.278;2022-12-18T04:42:13;9.32;;;7.05;;
51862;SDS011;37900;52.996;6.278;2022-12-18T04:44:38;10.63;;;6.97;;
51862;SDS011;37900;52.996;6.278;2022-12-18T04:47:04;10.63;;;6.93;;
51862;SDS011;37900;52.996;6.278;2022-12-18T04:49:30;10.45;;;7.25;;
51862;SDS011;37900;52.996;6.278;2022-12-18T04:51:56;10.80;;;6.97;;
51862;SDS011;37900;52.996;6.278;2022-12-18T04:54:21;9.30;;;6.95;;
51862;SDS011;37900;52.996;6.278;2022-12-18T04:56:47;9.15;;;7.28;;
51862;SDS011;37900;52.996;6.278;2022-12-18T04:59:13;8.30;;;7.05;;
51862;SDS011;37900;52.996;6.278;2022-12-18T05:01:39;10.85;;;7.18;;
51862;SDS011;37900;52.996;6.278;2022-12-18T05:04:04;10.20;;;7.28;;
51862;SDS011;37900;52.996;6.278;2022-12-18T05:06:30;11.15;;;6.90;;
51862;SDS011;37900;52.996;6.278;2022-12-18T05:08:56;8.20;;;6.20;;
51862;SDS011;37900;52.996;6.278;2022-12-18T05:11:22;10.32;;;7.10;;
51862;SDS011;37900;52.996;6.278;2022-12-18T05:13:48;10.20;;;7.05;;
51862;SDS011;37900;52.996;6.278;2022-12-18T05:16:14;9.77;;;7.30;;
51862;SDS011;37900;52.996;6.278;2022-12-18T05:18:40;10.15;;;6.78;;
51862;SDS011;37900;52.996;6.278;2022-12-18T05:21:06;9.48;;;7.15;;
51862;SDS011;37900;52.996;6.278;2022-12-18T05:23:32;9.57;;;7.07;;
51862;SDS011;37900;52.996;6.278;2022-12-18T05:26:00;10.25;;;7.05;;
51862;SDS011;37900;52.996;6.278;2022-12-18T05:28:28;10.63;;;7.28;;
51862;SDS011;37900;52.996;6.278;2022-12-18T05:33:22;11.23;;;7.47;;
51862;SDS011;37900;52.996;6.278;2022-12-18T05:35:53;9.95;;;7.22;;
51862;SDS011;37900;52.996;6.278;2022-12-18T05:38:20;9.07;;;6.53;;
51862;SDS011;37900;52.996;6.278;2022-12-18T05:40:47;8.32;;;6.82;;
51862;SDS011;37900;52.996;6.278;2022-12-18T05:45:40;9.15;;;7.10;;
51862;SDS011;37900;52.996;6.278;2022-12-18T05:48:06;9.00;;;6.65;;
51862;SDS011;37900;52.996;6.278;2022-12-18T05:50:36;9.18;;;6.60;;
51862;SDS011;37900;52.996;6.278;2022-12-18T05:53:03;9.10;;;7.13;;
51862;SDS011;37900;52.996;6.278;2022-12-18T05:55:32;9.68;;;7.00;;
51862;SDS011;37900;52.996;6.278;2022-12-18T05:57:59;9.27;;;6.80;;
51862;SDS011;37900;52.996;6.278;2022-12-18T06:00:25;10.50;;;6.88;;
51862;SDS011;37900;52.996;6.278;2022-12-18T06:02:51;9.85;;;6.78;;
51862;SDS011;37900;52.996;6.278;2022-12-18T06:05:17;11.07;;;7.10;;
51862;SDS011;37900;52.996;6.278;2022-12-18T06:07:42;10.85;;;6.68;;
51862;SDS011;37900;52.996;6.278;2022-12-18T06:10:08;9.88;;;6.63;;
51862;SDS011;37900;52.996;6.278;2022-12-18T06:12:37;8.40;;;6.40;;
51862;SDS011;37900;52.996;6.278;2022-12-18T06:15:03;8.70;;;6.00;;
51862;SDS011;37900;52.996;6.278;2022-12-18T06:17:29;8.80;;;6.80;;
51862;SDS011;37900;52.996;6.278;2022-12-18T06:19:56;8.90;;;6.57;;
51862;SDS011;37900;52.996;6.278;2022-12-18T06:22:22;9.48;;;6.60;;
51862;SDS011;37900;52.996;6.278;2022-12-18T06:24:48;9.38;;;6.20;;
51862;SDS011;37900;52.996;6.278;2022-12-18T06:27:14;9.40;;;6.78;;
51862;SDS011;37900;52.996;6.278;2022-12-18T06:29:40;9.45;;;6.72;;
51862;SDS011;37900;52.996;6.278;2022-12-18T06:32:06;10.57;;;7.30;;
51862;SDS011;37900;52.996;6.278;2022-12-18T06:34:32;8.82;;;6.43;;
51862;SDS011;37900;52.996;6.278;2022-12-18T06:36:58;9.32;;;6.78;;
51862;SDS011;37900;52.996;6.278;2022-12-18T06:39:24;9.13;;;6.53;;
51862;SDS011;37900;52.996;6.278;2022-12-18T06:41:52;8.25;;;6.53;;
51862;SDS011;37900;52.996;6.278;2022-12-18T06:44:18;8.68;;;6.25;;
51862;SDS011;37900;52.996;6.278;2022-12-18T06:46:44;8.98;;;7.13;;
51862;SDS011;37900;52.996;6.278;2022-12-18T06:49:10;9.93;;;6.28;;
51862;SDS011;37900;52.996;6.278;2022-12-18T06:51:35;9.73;;;6.90;;
51862;SDS011;37900;52.996;6.278;2022-12-18T06:54:01;8.32;;;6.03;;
51862;SDS011;37900;52.996;6.278;2022-12-18T06:56:27;9.68;;;7.25;;
51862;SDS011;37900;52.996;6.278;2022-12-18T06:58:53;9.20;;;6.30;;
51862;SDS011;37900;52.996;6.278;2022-12-18T07:01:20;9.47;;;6.17;;
51862;SDS011;37900;52.996;6.278;2022-12-18T07:03:46;8.93;;;6.68;;
51862;SDS011;37900;52.996;6.278;2022-12-18T07:06:16;9.05;;;6.30;;
51862;SDS011;37900;52.996;6.278;2022-12-18T07:08:44;8.75;;;6.38;;
51862;SDS011;37900;52.996;6.278;2022-12-18T07:11:10;9.50;;;6.82;;
51862;SDS011;37900;52.996;6.278;2022-12-18T07:13:36;9.23;;;6.57;;
51862;SDS011;37900;52.996;6.278;2022-12-18T07:16:09;10.02;;;7.13;;
51862;SDS011;37900;52.996;6.278;2022-12-18T07:18:44;8.20;;;6.50;;
51862;SDS011;37900;52.996;6.278;2022-12-18T07:21:12;7.93;;;6.60;;
51862;SDS011;37900;52.996;6.278;2022-12-18T07:23:39;9.30;;;6.60;;
51862;SDS011;37900;52.996;6.278;2022-12-18T07:26:06;8.73;;;6.70;;
51862;SDS011;37900;52.996;6.278;2022-12-18T07:28:35;9.88;;;6.70;;
51862;SDS011;37900;52.996;6.278;2022-12-18T07:31:05;8.85;;;6.22;;
51862;SDS011;37900;52.996;6.278;2022-12-18T07:33:41;8.40;;;6.47;;
51862;SDS011;37900;52.996;6.278;2022-12-18T07:36:07;9.02;;;6.47;;
51862;SDS011;37900;52.996;6.278;2022-12-18T07:38:34;9.60;;;6.68;;
51862;SDS011;37900;52.996;6.278;2022-12-18T07:41:01;8.30;;;5.63;;
51862;SDS011;37900;52.996;6.278;2022-12-18T07:43:37;10.30;;;6.47;;
51862;SDS011;37900;52.996;6.278;2022-12-18T07:46:04;9.75;;;6.78;;
51862;SDS011;37900;52.996;6.278;2022-12-18T07:48:31;10.15;;;6.47;;
51862;SDS011;37900;52.996;6.278;2022-12-18T07:51:01;9.40;;;5.97;;
51862;SDS011;37900;52.996;6.278;2022-12-18T07:53:27;8.35;;;6.43;;
51862;SDS011;37900;52.996;6.278;2022-12-18T07:55:57;9.32;;;6.47;;
51862;SDS011;37900;52.996;6.278;2022-12-18T07:58:23;7.85;;;6.28;;
51862;SDS011;37900;52.996;6.278;2022-12-18T08:00:49;9.68;;;6.40;;
51862;SDS011;37900;52.996;6.278;2022-12-18T08:03:15;8.10;;;5.72;;
51862;SDS011;37900;52.996;6.278;2022-12-18T08:05:41;8.35;;;6.88;;
51862;SDS011;37900;52.996;6.278;2022-12-18T08:08:07;9.02;;;6.28;;
51862;SDS011;37900;52.996;6.278;2022-12-18T08:10:33;8.23;;;5.85;;
51862;SDS011;37900;52.996;6.278;2022-12-18T08:12:58;9.57;;;6.30;;
51862;SDS011;37900;52.996;6.278;2022-12-18T08:15:24;7.93;;;5.90;;
51862;SDS011;37900;52.996;6.278;2022-12-18T08:17:50;7.93;;;6.20;;
51862;SDS011;37900;52.996;6.278;2022-12-18T08:20:15;8.30;;;6.50;;
51862;SDS011;37900;52.996;6.278;2022-12-18T08:22:43;7.50;;;5.60;;
51862;SDS011;37900;52.996;6.278;2022-12-18T08:25:09;7.45;;;5.97;;
51862;SDS011;37900;52.996;6.278;2022-12-18T08:27:35;10.38;;;5.70;;
51862;SDS011;37900;52.996;6.278;2022-12-18T08:30:02;9.30;;;6.47;;
51862;SDS011;37900;52.996;6.278;2022-12-18T08:32:29;10.65;;;6.53;;
51862;SDS011;37900;52.996;6.278;2022-12-18T08:34:54;7.85;;;5.80;;
51862;SDS011;37900;52.996;6.278;2022-12-18T08:37:20;10.18;;;6.35;;
51862;SDS011;37900;52.996;6.278;2022-12-18T08:39:46;8.55;;;6.20;;
51862;SDS011;37900;52.996;6.278;2022-12-18T08:42:12;8.35;;;5.93;;
51862;SDS011;37900;52.996;6.278;2022-12-18T08:44:56;8.02;;;6.50;;
51862;SDS011;37900;52.996;6.278;2022-12-18T08:47:22;8.32;;;6.50;;
51862;SDS011;37900;52.996;6.278;2022-12-18T08:49:48;8.43;;;5.88;;
51862;SDS011;37900;52.996;6.278;2022-12-18T08:52:13;8.07;;;5.90;;
51862;SDS011;37900;52.996;6.278;2022-12-18T08:54:39;6.97;;;5.72;;
51862;SDS011;37900;52.996;6.278;2022-12-18T08:57:05;6.82;;;5.45;;
51862;SDS011;37900;52.996;6.278;2022-12-18T08:59:30;8.77;;;6.43;;
51862;SDS011;37900;52.996;6.278;2022-12-18T09:01:56;8.60;;;6.03;;
51862;SDS011;37900;52.996;6.278;2022-12-18T09:04:22;10.45;;;6.53;;
51862;SDS011;37900;52.996;6.278;2022-12-18T09:06:48;7.65;;;5.70;;
51862;SDS011;37900;52.996;6.278;2022-12-18T09:09:13;8.35;;;5.97;;
51862;SDS011;37900;52.996;6.278;2022-12-18T09:11:39;7.53;;;5.70;;
51862;SDS011;37900;52.996;6.278;2022-12-18T09:14:05;8.57;;;5.88;;
51862;SDS011;37900;52.996;6.278;2022-12-18T09:16:31;9.05;;;5.97;;
51862;SDS011;37900;52.996;6.278;2022-12-18T09:18:59;8.15;;;5.68;;
51862;SDS011;37900;52.996;6.278;2022-12-18T09:21:30;7.23;;;5.67;;
51862;SDS011;37900;52.996;6.278;2022-12-18T09:23:58;6.68;;;5.25;;
51862;SDS011;37900;52.996;6.278;2022-12-18T09:26:24;7.65;;;5.82;;
51862;SDS011;37900;52.996;6.278;2022-12-18T09:28:51;9.68;;;5.90;;
51862;SDS011;37900;52.996;6.278;2022-12-18T09:31:17;8.55;;;5.38;;
51862;SDS011;37900;52.996;6.278;2022-12-18T09:33:44;7.00;;;4.85;;
51862;SDS011;37900;52.996;6.278;2022-12-18T09:36:11;7.95;;;5.25;;
51862;SDS011;37900;52.996;6.278;2022-12-18T09:38:39;6.63;;;5.07;;
51862;SDS011;37900;52.996;6.278;2022-12-18T09:44:01;8.38;;;5.78;;
51862;SDS011;37900;52.996;6.278;2022-12-18T09:46:41;7.38;;;5.20;;
51862;SDS011;37900;52.996;6.278;2022-12-18T09:49:13;8.60;;;5.28;;
51862;SDS011;37900;52.996;6.278;2022-12-18T09:51:44;6.65;;;5.40;;
51862;SDS011;37900;52.996;6.278;2022-12-18T09:54:22;9.20;;;5.55;;
51862;SDS011;37900;52.996;6.278;2022-12-18T09:56:51;10.45;;;6.10;;
51862;SDS011;37900;52.996;6.278;2022-12-18T10:01:45;7.75;;;5.43;;
51862;SDS011;37900;52.996;6.278;2022-12-18T10:04:11;9.80;;;6.13;;
51862;SDS011;37900;52.996;6.278;2022-12-18T10:14:49;7.10;;;4.95;;
51862;SDS011;37900;52.996;6.278;2022-12-18T10:17:41;8.38;;;5.05;;
51862;SDS011;37900;52.996;6.278;2022-12-18T10:26:01;9.18;;;5.55;;
51862;SDS011;37900;52.996;6.278;2022-12-18T10:28:32;6.40;;;5.05;;
51862;SDS011;37900;52.996;6.278;2022-12-18T10:31:01;8.00;;;5.55;;
51862;SDS011;37900;52.996;6.278;2022-12-18T10:33:31;9.85;;;6.50;;
51862;SDS011;37900;52.996;6.278;2022-12-18T10:35:58;9.02;;;6.47;;
51862;SDS011;37900;52.996;6.278;2022-12-18T10:38:28;9.55;;;6.32;;
51862;SDS011;37900;52.996;6.278;2022-12-18T10:41:01;9.02;;;6.72;;
51862;SDS011;37900;52.996;6.278;2022-12-18T10:43:29;9.80;;;6.50;;
51862;SDS011;37900;52.996;6.278;2022-12-18T10:51:06;9.75;;;6.45;;
51862;SDS011;37900;52.996;6.278;2022-12-18T10:53:33;10.27;;;6.18;;
51862;SDS011;37900;52.996;6.278;2022-12-18T10:56:02;9.82;;;6.10;;
51862;SDS011;37900;52.996;6.278;2022-12-18T10:58:33;9.00;;;5.75;;
51862;SDS011;37900;52.996;6.278;2022-12-18T11:06:09;7.35;;;5.20;;
51862;SDS011;37900;52.996;6.278;2022-12-18T11:08:38;9.82;;;6.22;;
51862;SDS011;37900;52.996;6.278;2022-12-18T11:11:06;7.38;;;5.53;;
51862;SDS011;37900;52.996;6.278;2022-12-18T11:13:41;8.03;;;5.83;;
51862;SDS011;37900;52.996;6.278;2022-12-18T11:16:21;9.52;;;5.47;;
51862;SDS011;37900;52.996;6.278;2022-12-18T11:18:47;9.20;;;5.70;;
51862;SDS011;37900;52.996;6.278;2022-12-18T11:21:12;7.05;;;5.03;;
51862;SDS011;37900;52.996;6.278;2022-12-18T11:23:52;8.27;;;5.90;;
51862;SDS011;37900;52.996;6.278;2022-12-18T11:26:18;8.50;;;5.60;;
51862;SDS011;37900;52.996;6.278;2022-12-18T11:28:47;8.40;;;5.75;;
51862;SDS011;37900;52.996;6.278;2022-12-18T11:33:50;8.50;;;5.88;;
51862;SDS011;37900;52.996;6.278;2022-12-18T11:36:23;9.27;;;5.43;;
51862;SDS011;37900;52.996;6.278;2022-12-18T11:38:51;9.93;;;5.15;;
51862;SDS011;37900;52.996;6.278;2022-12-18T11:41:27;8.82;;;5.22;;
51862;SDS011;37900;52.996;6.278;2022-12-18T11:44:26;6.13;;;4.63;;
51862;SDS011;37900;52.996;6.278;2022-12-18T11:46:56;7.28;;;5.05;;
51862;SDS011;37900;52.996;6.278;2022-12-18T11:49:29;8.05;;;4.80;;
51862;SDS011;37900;52.996;6.278;2022-12-18T11:52:19;7.88;;;4.93;;
51862;SDS011;37900;52.996;6.278;2022-12-18T11:54:52;6.78;;;4.88;;
51862;SDS011;37900;52.996;6.278;2022-12-18T12:03:24;6.57;;;4.65;;
51862;SDS011;37900;52.996;6.278;2022-12-18T12:14:36;5.68;;;4.70;;
51862;SDS011;37900;52.996;6.278;2022-12-18T12:17:14;6.03;;;4.18;;
51862;SDS011;37900;52.996;6.278;2022-12-18T12:20:03;5.43;;;4.30;;
51862;SDS011;37900;52.996;6.278;2022-12-18T12:30:52;8.38;;;4.32;;
51862;SDS011;37900;52.996;6.278;2022-12-18T12:36:29;6.78;;;4.78;;
51862;SDS011;37900;52.996;6.278;2022-12-18T12:39:09;6.93;;;4.20;;
51862;SDS011;37900;52.996;6.278;2022-12-18T12:41:41;5.95;;;4.30;;
51862;SDS011;37900;52.996;6.278;2022-12-18T12:44:32;5.57;;;4.25;;
51862;SDS011;37900;52.996;6.278;2022-12-18T12:47:08;5.32;;;3.67;;
51862;SDS011;37900;52.996;6.278;2022-12-18T12:49:45;4.95;;;3.88;;
51862;SDS011;37900;52.996;6.278;2022-12-18T12:52:33;8.80;;;3.80;;
51862;SDS011;37900;52.996;6.278;2022-12-18T12:55:24;5.38;;;3.78;;
51862;SDS011;37900;52.996;6.278;2022-12-18T12:58:05;5.32;;;3.90;;
51862;SDS011;37900;52.996;6.278;2022-12-18T13:00:40;7.47;;;4.35;;
51862;SDS011;37900;52.996;6.278;2022-12-18T13:03:21;5.63;;;3.97;;
51862;SDS011;37900;52.996;6.278;2022-12-18T13:06:16;5.88;;;4.22;;
51862;SDS011;37900;52.996;6.278;2022-12-18T13:08:55;5.47;;;3.95;;
51862;SDS011;37900;52.996;6.278;2022-12-18T13:14:45;4.50;;;3.63;;
51862;SDS011;37900;52.996;6.278;2022-12-18T13:20:03;4.32;;;3.40;;
51862;SDS011;37900;52.996;6.278;2022-12-18T13:22:42;4.43;;;3.60;;
51862;SDS011;37900;52.996;6.278;2022-12-18T13:28:06;5.82;;;3.80;;
51862;SDS011;37900;52.996;6.278;2022-12-18T13:30:52;9.25;;;3.80;;
51862;SDS011;37900;52.996;6.278;2022-12-18T13:35:53;4.75;;;3.65;;
51862;SDS011;37900;52.996;6.278;2022-12-18T13:38:35;6.43;;;3.75;;
51862;SDS011;37900;52.996;6.278;2022-12-18T13:43:47;4.65;;;3.72;;
51862;SDS011;37900;52.996;6.278;2022-12-18T13:46:27;6.40;;;3.72;;
51862;SDS011;37900;52.996;6.278;2022-12-18T13:49:06;6.18;;;3.67;;
51862;SDS011;37900;52.996;6.278;2022-12-18T13:51:52;4.57;;;2.80;;
51862;SDS011;37900;52.996;6.278;2022-12-18T13:54:22;4.10;;;3.05;;
51862;SDS011;37900;52.996;6.278;2022-12-18T13:56:55;5.45;;;3.65;;
51862;SDS011;37900;52.996;6.278;2022-12-18T13:59:22;5.25;;;3.60;;
51862;SDS011;37900;52.996;6.278;2022-12-18T14:01:53;4.78;;;3.55;;
51862;SDS011;37900;52.996;6.278;2022-12-18T14:04:28;5.22;;;3.75;;
51862;SDS011;37900;52.996;6.278;2022-12-18T14:06:58;5.43;;;3.40;;
51862;SDS011;37900;52.996;6.278;2022-12-18T14:09:29;5.63;;;3.40;;
51862;SDS011;37900;52.996;6.278;2022-12-18T14:11:59;5.30;;;3.10;;
51862;SDS011;37900;52.996;6.278;2022-12-18T14:14:45;5.03;;;2.88;;
51862;SDS011;37900;52.996;6.278;2022-12-18T14:17:14;4.28;;;3.17;;
51862;SDS011;37900;52.996;6.278;2022-12-18T14:19:44;4.18;;;2.92;;
51862;SDS011;37900;52.996;6.278;2022-12-18T14:22:19;4.95;;;3.40;;
51862;SDS011;37900;52.996;6.278;2022-12-18T14:24:47;4.70;;;3.05;;
51862;SDS011;37900;52.996;6.278;2022-12-18T14:27:29;4.18;;;3.13;;
51862;SDS011;37900;52.996;6.278;2022-12-18T14:29:55;4.80;;;3.20;;
51862;SDS011;37900;52.996;6.278;2022-12-18T14:32:21;4.85;;;3.20;;
51862;SDS011;37900;52.996;6.278;2022-12-18T14:34:51;4.73;;;3.50;;
51862;SDS011;37900;52.996;6.278;2022-12-18T14:37:23;3.67;;;2.90;;
51862;SDS011;37900;52.996;6.278;2022-12-18T14:39:54;4.68;;;3.25;;
51862;SDS011;37900;52.996;6.278;2022-12-18T14:42:30;4.28;;;2.90;;
51862;SDS011;37900;52.996;6.278;2022-12-18T14:48:00;5.50;;;3.13;;
51862;SDS011;37900;52.996;6.278;2022-12-18T14:50:30;4.50;;;2.97;;
51862;SDS011;37900;52.996;6.278;2022-12-18T14:52:56;4.70;;;3.42;;
51862;SDS011;37900;52.996;6.278;2022-12-18T14:55:21;4.40;;;3.20;;
51862;SDS011;37900;52.996;6.278;2022-12-18T14:57:51;4.93;;;3.60;;
51862;SDS011;37900;52.996;6.278;2022-12-18T15:00:21;4.00;;;3.20;;
51862;SDS011;37900;52.996;6.278;2022-12-18T15:02:50;4.10;;;3.17;;
51862;SDS011;37900;52.996;6.278;2022-12-18T15:05:25;4.05;;;3.05;;
51862;SDS011;37900;52.996;6.278;2022-12-18T15:07:53;4.43;;;2.95;;
51862;SDS011;37900;52.996;6.278;2022-12-18T15:10:22;4.60;;;3.00;;
51862;SDS011;37900;52.996;6.278;2022-12-18T15:13:15;4.07;;;2.97;;
51862;SDS011;37900;52.996;6.278;2022-12-18T15:15:45;4.65;;;2.90;;
51862;SDS011;37900;52.996;6.278;2022-12-18T15:18:13;4.68;;;3.25;;
51862;SDS011;37900;52.996;6.278;2022-12-18T15:23:36;4.85;;;3.30;;
51862;SDS011;37900;52.996;6.278;2022-12-18T15:26:11;3.20;;;2.88;;
51862;SDS011;37900;52.996;6.278;2022-12-18T15:28:49;3.55;;;2.70;;
51862;SDS011;37900;52.996;6.278;2022-12-18T15:31:34;4.13;;;3.33;;
51862;SDS011;37900;52.996;6.278;2022-12-18T15:36:31;3.78;;;2.85;;
51862;SDS011;37900;52.996;6.278;2022-12-18T15:38:57;4.32;;;3.17;;
51862;SDS011;37900;52.996;6.278;2022-12-18T15:41:23;4.30;;;2.70;;
51862;SDS011;37900;52.996;6.278;2022-12-18T15:43:50;5.80;;;3.43;;
51862;SDS011;37900;52.996;6.278;2022-12-18T15:46:18;4.03;;;2.95;;
51862;SDS011;37900;52.996;6.278;2022-12-18T15:48:45;5.85;;;3.03;;
51862;SDS011;37900;52.996;6.278;2022-12-18T15:51:28;4.00;;;2.63;;
51862;SDS011;37900;52.996;6.278;2022-12-18T15:53:56;4.00;;;3.03;;
51862;SDS011;37900;52.996;6.278;2022-12-18T15:56:25;3.50;;;2.70;;
51862;SDS011;37900;52.996;6.278;2022-12-18T15:59:10;3.78;;;2.97;;
51862;SDS011;37900;52.996;6.278;2022-12-18T16:01:38;3.97;;;2.97;;
51862;SDS011;37900;52.996;6.278;2022-12-18T16:04:06;4.38;;;3.00;;
51862;SDS011;37900;52.996;6.278;2022-12-18T16:06:31;3.40;;;3.03;;
51862;SDS011;37900;52.996;6.278;2022-12-18T16:08:57;3.83;;;2.88;;
51862;SDS011;37900;52.996;6.278;2022-12-18T16:11:30;3.92;;;2.58;;
51862;SDS011;37900;52.996;6.278;2022-12-18T16:14:11;4.32;;;2.80;;
51862;SDS011;37900;52.996;6.278;2022-12-18T16:16:46;4.28;;;2.67;;
51862;SDS011;37900;52.996;6.278;2022-12-18T16:19:16;3.65;;;2.63;;
51862;SDS011;37900;52.996;6.278;2022-12-18T16:21:42;4.85;;;3.08;;
51862;SDS011;37900;52.996;6.278;2022-12-18T16:24:13;3.40;;;2.80;;
51862;SDS011;37900;52.996;6.278;2022-12-18T16:26:39;4.13;;;3.03;;
51862;SDS011;37900;52.996;6.278;2022-12-18T16:31:32;2.88;;;2.40;;
51862;SDS011;37900;52.996;6.278;2022-12-18T16:34:11;3.85;;;3.40;;
51862;SDS011;37900;52.996;6.278;2022-12-18T16:36:52;4.95;;;3.70;;
51862;SDS011;37900;52.996;6.278;2022-12-18T16:39:19;3.72;;;2.40;;
51862;SDS011;37900;52.996;6.278;2022-12-18T16:41:45;3.33;;;3.03;;
51862;SDS011;37900;52.996;6.278;2022-12-18T16:44:11;4.45;;;3.10;;
51862;SDS011;37900;52.996;6.278;2022-12-18T16:46:37;3.97;;;2.92;;
51862;SDS011;37900;52.996;6.278;2022-12-18T16:49:04;3.92;;;2.83;;
51862;SDS011;37900;52.996;6.278;2022-12-18T16:51:30;4.40;;;3.05;;
51862;SDS011;37900;52.996;6.278;2022-12-18T16:53:56;3.25;;;2.60;;